EICK

Cork Airport

Cork, Ireland
METAR EICK 240330Z 31005KT CAVOK 06/03 Q1039 NOSIG
Observed Flight Rules
Sep-24 @ 03:30 UTC (26 minutes ago) Visual Flight Rules
Wind Visibility Clouds
310° at 5 knots 10,000+ meters
  • Clear skies
Temperatures Readings
Current 6°C / 43°F
Dewpoint 3°C / 37°F
Humidity 81%
Altimeter 30.68" Hg
Pressure 1039 hPa
Elevation 162
METAR EICK 240330Z 31005KT CAVOK 06/03 Q1039 NOSIG
Observed Flight Rules
Sep-24 @ 03:30 UTC
(26 minutes ago)
VFR
Wind Visibility
310° at 5 knots 10,000+ meters
Clouds
  • Clear skies
Temperature Dewpoint
6°C / 43°F 3°C / 37°F
Humidity Altimeter Pressure
81% 30.68" Hg 1039 hPa